sensor_id;sensor_type;location;lat;lon;timestamp;temperature;humidity
17762;DHT22;9005;48.838;10.112;2024-02-14T00:00:19;1.70;82.80
17762;DHT22;9005;48.838;10.112;2024-02-14T00:02:46;1.70;82.90
17762;DHT22;9005;48.838;10.112;2024-02-14T00:05:14;1.70;83.10
17762;DHT22;9005;48.838;10.112;2024-02-14T00:07:43;1.70;83.10
17762;DHT22;9005;48.838;10.112;2024-02-14T00:10:10;1.70;82.90
17762;DHT22;9005;48.838;10.112;2024-02-14T00:12:37;1.70;83.10
17762;DHT22;9005;48.838;10.112;2024-02-14T00:15:04;1.70;83.10
17762;DHT22;9005;48.838;10.112;2024-02-14T00:17:31;1.70;82.70
17762;DHT22;9005;48.838;10.112;2024-02-14T00:19:59;1.70;82.80
17762;DHT22;9005;48.838;10.112;2024-02-14T00:22:26;1.70;82.70
17762;DHT22;9005;48.838;10.112;2024-02-14T00:24:54;1.70;83.00
17762;DHT22;9005;48.838;10.112;2024-02-14T00:27:21;1.70;82.90
17762;DHT22;9005;48.838;10.112;2024-02-14T00:29:47;1.70;83.20
17762;DHT22;9005;48.838;10.112;2024-02-14T00:32:14;1.70;83.30
17762;DHT22;9005;48.838;10.112;2024-02-14T00:34:41;1.70;83.10
17762;DHT22;9005;48.838;10.112;2024-02-14T00:37:08;1.80;83.00
17762;DHT22;9005;48.838;10.112;2024-02-14T00:39:35;1.80;82.50
17762;DHT22;9005;48.838;10.112;2024-02-14T00:42:03;1.70;82.90
17762;DHT22;9005;48.838;10.112;2024-02-14T00:44:30;1.70;82.90
17762;DHT22;9005;48.838;10.112;2024-02-14T00:46:57;1.70;82.60
17762;DHT22;9005;48.838;10.112;2024-02-14T00:49:25;1.80;82.80
17762;DHT22;9005;48.838;10.112;2024-02-14T00:51:52;1.80;82.90
17762;DHT22;9005;48.838;10.112;2024-02-14T00:54:18;1.70;83.10
17762;DHT22;9005;48.838;10.112;2024-02-14T00:56:45;1.70;82.40
17762;DHT22;9005;48.838;10.112;2024-02-14T00:59:13;1.70;82.60
17762;DHT22;9005;48.838;10.112;2024-02-14T01:01:40;1.70;83.00
17762;DHT22;9005;48.838;10.112;2024-02-14T01:04:07;1.70;83.00
17762;DHT22;9005;48.838;10.112;2024-02-14T01:06:34;1.70;82.60
17762;DHT22;9005;48.838;10.112;2024-02-14T01:09:00;1.70;82.60
17762;DHT22;9005;48.838;10.112;2024-02-14T01:11:28;1.70;83.10
17762;DHT22;9005;48.838;10.112;2024-02-14T01:13:55;1.70;82.80
17762;DHT22;9005;48.838;10.112;2024-02-14T01:16:24;1.70;82.30
17762;DHT22;9005;48.838;10.112;2024-02-14T01:18:51;1.70;82.50
17762;DHT22;9005;48.838;10.112;2024-02-14T01:21:18;1.70;83.10
17762;DHT22;9005;48.838;10.112;2024-02-14T01:23:45;1.60;83.10
17762;DHT22;9005;48.838;10.112;2024-02-14T01:26:11;1.60;83.30
17762;DHT22;9005;48.838;10.112;2024-02-14T01:28:38;1.50;83.80
17762;DHT22;9005;48.838;10.112;2024-02-14T01:31:05;1.50;84.20
17762;DHT22;9005;48.838;10.112;2024-02-14T01:33:33;1.50;84.60
17762;DHT22;9005;48.838;10.112;2024-02-14T01:36:00;1.50;84.80
17762;DHT22;9005;48.838;10.112;2024-02-14T01:38:27;1.60;84.90
17762;DHT22;9005;48.838;10.112;2024-02-14T01:40:53;1.60;84.80
17762;DHT22;9005;48.838;10.112;2024-02-14T01:43:20;1.60;84.90
17762;DHT22;9005;48.838;10.112;2024-02-14T01:45:47;1.60;84.70
17762;DHT22;9005;48.838;10.112;2024-02-14T01:48:14;1.70;84.70
17762;DHT22;9005;48.838;10.112;2024-02-14T01:50:45;1.60;84.80
17762;DHT22;9005;48.838;10.112;2024-02-14T01:53:13;1.70;84.90
17762;DHT22;9005;48.838;10.112;2024-02-14T01:55:40;1.70;84.70
17762;DHT22;9005;48.838;10.112;2024-02-14T01:58:07;1.70;84.60
17762;DHT22;9005;48.838;10.112;2024-02-14T02:00:34;1.70;84.40
17762;DHT22;9005;48.838;10.112;2024-02-14T02:03:02;1.80;84.20
17762;DHT22;9005;48.838;10.112;2024-02-14T02:05:29;1.90;83.70
17762;DHT22;9005;48.838;10.112;2024-02-14T02:07:57;1.90;83.40
17762;DHT22;9005;48.838;10.112;2024-02-14T02:10:24;2.00;82.90
17762;DHT22;9005;48.838;10.112;2024-02-14T02:12:57;2.00;82.70
17762;DHT22;9005;48.838;10.112;2024-02-14T02:15:24;2.10;82.30
17762;DHT22;9005;48.838;10.112;2024-02-14T02:17:52;2.20;81.90
17762;DHT22;9005;48.838;10.112;2024-02-14T02:20:19;2.20;81.60
17762;DHT22;9005;48.838;10.112;2024-02-14T02:22:48;2.30;81.20
17762;DHT22;9005;48.838;10.112;2024-02-14T02:25:15;2.30;80.90
17762;DHT22;9005;48.838;10.112;2024-02-14T02:27:41;2.40;80.90
17762;DHT22;9005;48.838;10.112;2024-02-14T02:30:08;2.40;80.40
17762;DHT22;9005;48.838;10.112;2024-02-14T02:32:36;2.50;79.80
17762;DHT22;9005;48.838;10.112;2024-02-14T02:35:03;2.70;79.30
17762;DHT22;9005;48.838;10.112;2024-02-14T02:37:30;2.80;78.40
17762;DHT22;9005;48.838;10.112;2024-02-14T02:39:58;2.90;78.10
17762;DHT22;9005;48.838;10.112;2024-02-14T02:42:25;3.00;77.80
17762;DHT22;9005;48.838;10.112;2024-02-14T02:44:52;3.00;76.90
17762;DHT22;9005;48.838;10.112;2024-02-14T02:47:18;3.10;76.60
17762;DHT22;9005;48.838;10.112;2024-02-14T02:49:46;3.10;76.10
17762;DHT22;9005;48.838;10.112;2024-02-14T02:52:13;3.20;75.90
17762;DHT22;9005;48.838;10.112;2024-02-14T02:54:40;3.40;75.70
17762;DHT22;9005;48.838;10.112;2024-02-14T02:57:10;3.40;75.40
17762;DHT22;9005;48.838;10.112;2024-02-14T02:59:37;3.10;75.50
17762;DHT22;9005;48.838;10.112;2024-02-14T03:02:08;3.10;75.80
17762;DHT22;9005;48.838;10.112;2024-02-14T03:04:37;3.10;76.50
17762;DHT22;9005;48.838;10.112;2024-02-14T03:07:04;3.10;75.80
17762;DHT22;9005;48.838;10.112;2024-02-14T03:09:32;3.10;76.50
17762;DHT22;9005;48.838;10.112;2024-02-14T03:11:59;3.10;76.50
17762;DHT22;9005;48.838;10.112;2024-02-14T03:14:28;3.10;76.80
17762;DHT22;9005;48.838;10.112;2024-02-14T03:16:58;3.10;77.00
17762;DHT22;9005;48.838;10.112;2024-02-14T03:19:25;3.20;76.80
17762;DHT22;9005;48.838;10.112;2024-02-14T03:21:52;3.20;76.60
17762;DHT22;9005;48.838;10.112;2024-02-14T03:24:19;3.20;76.60
17762;DHT22;9005;48.838;10.112;2024-02-14T03:26:46;3.20;76.50
17762;DHT22;9005;48.838;10.112;2024-02-14T03:29:12;3.20;76.60
17762;DHT22;9005;48.838;10.112;2024-02-14T03:31:43;3.10;77.00
17762;DHT22;9005;48.838;10.112;2024-02-14T03:34:10;3.10;76.70
17762;DHT22;9005;48.838;10.112;2024-02-14T03:36:37;3.10;77.10
17762;DHT22;9005;48.838;10.112;2024-02-14T03:39:03;3.00;77.40
17762;DHT22;9005;48.838;10.112;2024-02-14T03:41:32;2.90;77.70
17762;DHT22;9005;48.838;10.112;2024-02-14T03:43:59;2.90;77.90
17762;DHT22;9005;48.838;10.112;2024-02-14T03:46:27;2.80;78.00
17762;DHT22;9005;48.838;10.112;2024-02-14T03:48:55;3.10;78.00
17762;DHT22;9005;48.838;10.112;2024-02-14T03:51:23;2.90;78.10
17762;DHT22;9005;48.838;10.112;2024-02-14T03:53:50;2.90;78.40
17762;DHT22;9005;48.838;10.112;2024-02-14T03:56:17;2.90;78.60
17762;DHT22;9005;48.838;10.112;2024-02-14T03:58:43;2.90;78.20
17762;DHT22;9005;48.838;10.112;2024-02-14T04:01:11;2.90;78.30
17762;DHT22;9005;48.838;10.112;2024-02-14T04:03:38;2.90;78.10
17762;DHT22;9005;48.838;10.112;2024-02-14T04:06:06;2.90;77.70
17762;DHT22;9005;48.838;10.112;2024-02-14T04:08:33;3.00;77.30
17762;DHT22;9005;48.838;10.112;2024-02-14T04:11:00;3.00;77.00
17762;DHT22;9005;48.838;10.112;2024-02-14T04:13:27;3.10;76.70
17762;DHT22;9005;48.838;10.112;2024-02-14T04:15:54;3.20;76.00
17762;DHT22;9005;48.838;10.112;2024-02-14T04:18:20;3.30;75.70
17762;DHT22;9005;48.838;10.112;2024-02-14T04:20:47;3.30;75.60
17762;DHT22;9005;48.838;10.112;2024-02-14T04:23:15;3.30;75.40
17762;DHT22;9005;48.838;10.112;2024-02-14T04:25:42;3.30;75.70
17762;DHT22;9005;48.838;10.112;2024-02-14T04:28:08;3.20;76.20
17762;DHT22;9005;48.838;10.112;2024-02-14T04:30:36;3.10;76.20
17762;DHT22;9005;48.838;10.112;2024-02-14T04:33:03;3.00;76.60
17762;DHT22;9005;48.838;10.112;2024-02-14T04:35:31;2.90;77.20
17762;DHT22;9005;48.838;10.112;2024-02-14T04:37:59;2.90;77.30
17762;DHT22;9005;48.838;10.112;2024-02-14T04:40:27;2.80;77.80
17762;DHT22;9005;48.838;10.112;2024-02-14T04:42:54;2.80;77.90
17762;DHT22;9005;48.838;10.112;2024-02-14T04:45:21;2.70;77.90
17762;DHT22;9005;48.838;10.112;2024-02-14T04:47:47;2.70;78.10
17762;DHT22;9005;48.838;10.112;2024-02-14T04:50:14;2.70;78.10
17762;DHT22;9005;48.838;10.112;2024-02-14T04:52:41;2.80;77.30
17762;DHT22;9005;48.838;10.112;2024-02-14T04:55:08;3.20;77.30
17762;DHT22;9005;48.838;10.112;2024-02-14T04:57:36;3.00;77.00
17762;DHT22;9005;48.838;10.112;2024-02-14T05:00:04;3.10;77.00
17762;DHT22;9005;48.838;10.112;2024-02-14T05:02:31;3.20;76.40
17762;DHT22;9005;48.838;10.112;2024-02-14T05:04:58;3.20;76.20
17762;DHT22;9005;48.838;10.112;2024-02-14T05:07:24;3.30;75.70
17762;DHT22;9005;48.838;10.112;2024-02-14T05:09:51;3.30;75.60
17762;DHT22;9005;48.838;10.112;2024-02-14T05:12:20;3.40;75.70
17762;DHT22;9005;48.838;10.112;2024-02-14T05:14:48;3.40;75.40
17762;DHT22;9005;48.838;10.112;2024-02-14T05:17:15;3.50;75.20
17762;DHT22;9005;48.838;10.112;2024-02-14T05:19:42;3.50;75.20
17762;DHT22;9005;48.838;10.112;2024-02-14T05:22:09;3.50;75.30
17762;DHT22;9005;48.838;10.112;2024-02-14T05:24:36;3.60;75.00
17762;DHT22;9005;48.838;10.112;2024-02-14T05:27:04;3.60;75.10
17762;DHT22;9005;48.838;10.112;2024-02-14T05:29:31;3.60;74.90
17762;DHT22;9005;48.838;10.112;2024-02-14T05:32:00;3.60;75.00
17762;DHT22;9005;48.838;10.112;2024-02-14T05:34:26;3.60;75.10
17762;DHT22;9005;48.838;10.112;2024-02-14T05:36:53;3.60;75.20
17762;DHT22;9005;48.838;10.112;2024-02-14T05:39:20;3.60;75.30
17762;DHT22;9005;48.838;10.112;2024-02-14T05:41:46;3.60;75.60
17762;DHT22;9005;48.838;10.112;2024-02-14T05:44:14;3.60;75.50
17762;DHT22;9005;48.838;10.112;2024-02-14T05:46:41;3.50;75.50
17762;DHT22;9005;48.838;10.112;2024-02-14T05:49:09;3.50;75.70
17762;DHT22;9005;48.838;10.112;2024-02-14T05:51:36;3.50;75.70
17762;DHT22;9005;48.838;10.112;2024-02-14T05:54:03;3.90;75.30
17762;DHT22;9005;48.838;10.112;2024-02-14T05:56:30;3.60;75.30
17762;DHT22;9005;48.838;10.112;2024-02-14T05:58:56;3.70;75.00
17762;DHT22;9005;48.838;10.112;2024-02-14T06:01:23;3.80;74.30
17762;DHT22;9005;48.838;10.112;2024-02-14T06:03:50;3.80;73.60
17762;DHT22;9005;48.838;10.112;2024-02-14T06:06:18;3.90;73.70
17762;DHT22;9005;48.838;10.112;2024-02-14T06:08:44;4.00;73.30
17762;DHT22;9005;48.838;10.112;2024-02-14T06:11:11;4.00;73.30
17762;DHT22;9005;48.838;10.112;2024-02-14T06:13:39;4.00;73.00
17762;DHT22;9005;48.838;10.112;2024-02-14T06:16:06;4.10;73.60
17762;DHT22;9005;48.838;10.112;2024-02-14T06:18:33;4.10;72.90
17762;DHT22;9005;48.838;10.112;2024-02-14T06:21:01;4.10;73.00
17762;DHT22;9005;48.838;10.112;2024-02-14T06:23:29;4.10;72.70
17762;DHT22;9005;48.838;10.112;2024-02-14T06:25:56;4.10;72.70
17762;DHT22;9005;48.838;10.112;2024-02-14T06:28:23;4.10;73.00
17762;DHT22;9005;48.838;10.112;2024-02-14T06:30:50;4.10;72.80
17762;DHT22;9005;48.838;10.112;2024-02-14T06:33:16;4.10;72.40
17762;DHT22;9005;48.838;10.112;2024-02-14T06:35:44;4.10;72.60
17762;DHT22;9005;48.838;10.112;2024-02-14T06:38:10;4.10;72.60
17762;DHT22;9005;48.838;10.112;2024-02-14T06:40:39;4.10;72.30
17762;DHT22;9005;48.838;10.112;2024-02-14T06:43:06;4.00;71.70
17762;DHT22;9005;48.838;10.112;2024-02-14T06:45:33;4.00;71.80
17762;DHT22;9005;48.838;10.112;2024-02-14T06:47:59;4.00;72.00
17762;DHT22;9005;48.838;10.112;2024-02-14T06:50:26;3.90;72.00
17762;DHT22;9005;48.838;10.112;2024-02-14T06:52:54;3.90;72.30
17762;DHT22;9005;48.838;10.112;2024-02-14T06:55:24;3.80;72.50
17762;DHT22;9005;48.838;10.112;2024-02-14T06:57:52;3.80;72.30
17762;DHT22;9005;48.838;10.112;2024-02-14T07:00:20;3.80;72.70
17762;DHT22;9005;48.838;10.112;2024-02-14T07:02:47;3.80;72.50
17762;DHT22;9005;48.838;10.112;2024-02-14T07:05:13;3.80;73.00
17762;DHT22;9005;48.838;10.112;2024-02-14T07:07:40;3.80;72.80
17762;DHT22;9005;48.838;10.112;2024-02-14T07:10:08;3.80;73.40
17762;DHT22;9005;48.838;10.112;2024-02-14T07:12:35;3.80;73.50
17762;DHT22;9005;48.838;10.112;2024-02-14T07:15:04;3.80;73.90
17762;DHT22;9005;48.838;10.112;2024-02-14T07:17:32;3.80;73.70
17762;DHT22;9005;48.838;10.112;2024-02-14T07:19:59;3.80;73.70
17762;DHT22;9005;48.838;10.112;2024-02-14T07:22:25;3.90;74.00
17762;DHT22;9005;48.838;10.112;2024-02-14T07:24:52;3.90;73.80
17762;DHT22;9005;48.838;10.112;2024-02-14T07:27:19;3.90;73.80
17762;DHT22;9005;48.838;10.112;2024-02-14T07:29:47;4.00;73.80
17762;DHT22;9005;48.838;10.112;2024-02-14T07:32:15;4.10;73.50
17762;DHT22;9005;48.838;10.112;2024-02-14T07:34:42;4.30;73.10
17762;DHT22;9005;48.838;10.112;2024-02-14T07:37:09;4.50;72.50
17762;DHT22;9005;48.838;10.112;2024-02-14T07:39:35;4.70;71.70
17762;DHT22;9005;48.838;10.112;2024-02-14T07:42:03;4.90;70.60
17762;DHT22;9005;48.838;10.112;2024-02-14T07:44:30;5.10;70.30
17762;DHT22;9005;48.838;10.112;2024-02-14T07:46:57;5.20;70.00
17762;DHT22;9005;48.838;10.112;2024-02-14T07:49:25;5.50;69.40
17762;DHT22;9005;48.838;10.112;2024-02-14T07:51:52;5.40;69.30
17762;DHT22;9005;48.838;10.112;2024-02-14T07:54:19;5.40;69.20
17762;DHT22;9005;48.838;10.112;2024-02-14T07:56:45;5.40;68.80
17762;DHT22;9005;48.838;10.112;2024-02-14T07:59:12;5.40;68.50
17762;DHT22;9005;48.838;10.112;2024-02-14T08:01:39;5.30;69.40
17762;DHT22;9005;48.838;10.112;2024-02-14T08:04:05;5.30;69.60
17762;DHT22;9005;48.838;10.112;2024-02-14T08:06:34;5.30;69.30
17762;DHT22;9005;48.838;10.112;2024-02-14T08:09:00;5.30;69.30
17762;DHT22;9005;48.838;10.112;2024-02-14T08:11:31;5.30;68.90
17762;DHT22;9005;48.838;10.112;2024-02-14T08:13:58;5.30;68.80
17762;DHT22;9005;48.838;10.112;2024-02-14T08:16:25;5.30;69.00
17762;DHT22;9005;48.838;10.112;2024-02-14T08:18:52;5.40;68.70
17762;DHT22;9005;48.838;10.112;2024-02-14T08:21:24;5.40;69.10
17762;DHT22;9005;48.838;10.112;2024-02-14T08:23:52;5.50;69.10
17762;DHT22;9005;48.838;10.112;2024-02-14T08:26:19;5.60;69.30
17762;DHT22;9005;48.838;10.112;2024-02-14T08:28:45;5.80;68.80
17762;DHT22;9005;48.838;10.112;2024-02-14T08:31:13;5.90;68.50
17762;DHT22;9005;48.838;10.112;2024-02-14T08:33:39;6.00;67.40
17762;DHT22;9005;48.838;10.112;2024-02-14T08:36:07;6.10;67.00
17762;DHT22;9005;48.838;10.112;2024-02-14T08:38:34;6.20;66.90
17762;DHT22;9005;48.838;10.112;2024-02-14T08:41:02;6.20;66.80
17762;DHT22;9005;48.838;10.112;2024-02-14T08:43:29;6.20;66.70
17762;DHT22;9005;48.838;10.112;2024-02-14T08:45:56;6.50;67.10
17762;DHT22;9005;48.838;10.112;2024-02-14T08:48:22;6.50;66.70
17762;DHT22;9005;48.838;10.112;2024-02-14T08:50:50;6.70;66.60
17762;DHT22;9005;48.838;10.112;2024-02-14T08:53:17;6.90;65.30
17762;DHT22;9005;48.838;10.112;2024-02-14T08:55:44;7.10;64.50
17762;DHT22;9005;48.838;10.112;2024-02-14T08:58:12;7.40;64.60
17762;DHT22;9005;48.838;10.112;2024-02-14T09:00:38;7.60;64.10
17762;DHT22;9005;48.838;10.112;2024-02-14T09:03:06;7.70;64.30
17762;DHT22;9005;48.838;10.112;2024-02-14T09:05:33;7.80;64.30
17762;DHT22;9005;48.838;10.112;2024-02-14T09:08:00;7.80;61.60
17762;DHT22;9005;48.838;10.112;2024-02-14T09:10:26;7.80;62.90
17762;DHT22;9005;48.838;10.112;2024-02-14T09:12:53;7.90;63.30
17762;DHT22;9005;48.838;10.112;2024-02-14T09:15:21;8.00;63.10
17762;DHT22;9005;48.838;10.112;2024-02-14T09:17:49;8.10;61.80
17762;DHT22;9005;48.838;10.112;2024-02-14T09:20:17;8.20;62.40
17762;DHT22;9005;48.838;10.112;2024-02-14T09:22:44;8.40;61.40
17762;DHT22;9005;48.838;10.112;2024-02-14T09:25:11;8.60;61.50
17762;DHT22;9005;48.838;10.112;2024-02-14T09:27:39;8.80;62.00
17762;DHT22;9005;48.838;10.112;2024-02-14T09:30:07;9.00;61.60
17762;DHT22;9005;48.838;10.112;2024-02-14T09:32:35;9.10;62.40
17762;DHT22;9005;48.838;10.112;2024-02-14T09:35:02;9.30;60.70
17762;DHT22;9005;48.838;10.112;2024-02-14T09:37:32;9.50;60.60
17762;DHT22;9005;48.838;10.112;2024-02-14T09:39:58;9.60;59.90
17762;DHT22;9005;48.838;10.112;2024-02-14T09:42:30;9.80;61.30
17762;DHT22;9005;48.838;10.112;2024-02-14T09:45:00;9.90;59.00
17762;DHT22;9005;48.838;10.112;2024-02-14T09:47:30;10.10;60.40
17762;DHT22;9005;48.838;10.112;2024-02-14T09:50:01;10.10;58.80
17762;DHT22;9005;48.838;10.112;2024-02-14T09:52:31;10.00;58.00
17762;DHT22;9005;48.838;10.112;2024-02-14T09:54:59;10.00;58.60
17762;DHT22;9005;48.838;10.112;2024-02-14T09:57:26;9.90;59.00
17762;DHT22;9005;48.838;10.112;2024-02-14T09:59:56;9.80;57.80
17762;DHT22;9005;48.838;10.112;2024-02-14T10:02:23;9.70;58.20
17762;DHT22;9005;48.838;10.112;2024-02-14T10:04:50;9.50;58.50
17762;DHT22;9005;48.838;10.112;2024-02-14T10:07:18;9.50;59.50
17762;DHT22;9005;48.838;10.112;2024-02-14T10:09:45;9.30;59.30
17762;DHT22;9005;48.838;10.112;2024-02-14T10:12:12;9.00;59.90
17762;DHT22;9005;48.838;10.112;2024-02-14T10:14:39;9.00;61.00
17762;DHT22;9005;48.838;10.112;2024-02-14T10:17:08;9.00;60.20
17762;DHT22;9005;48.838;10.112;2024-02-14T10:19:35;9.00;60.80
17762;DHT22;9005;48.838;10.112;2024-02-14T10:22:02;9.10;60.60
17762;DHT22;9005;48.838;10.112;2024-02-14T10:24:31;9.20;60.40
17762;DHT22;9005;48.838;10.112;2024-02-14T10:26:59;9.20;60.90
17762;DHT22;9005;48.838;10.112;2024-02-14T10:29:26;9.30;60.10
17762;DHT22;9005;48.838;10.112;2024-02-14T10:31:52;9.20;59.90
17762;DHT22;9005;48.838;10.112;2024-02-14T10:34:24;9.20;60.20
17762;DHT22;9005;48.838;10.112;2024-02-14T10:36:52;9.30;60.50
17762;DHT22;9005;48.838;10.112;2024-02-14T10:39:20;9.30;60.10
17762;DHT22;9005;48.838;10.112;2024-02-14T10:41:49;9.50;60.40
17762;DHT22;9005;48.838;10.112;2024-02-14T10:44:16;10.00;58.70
17762;DHT22;9005;48.838;10.112;2024-02-14T10:46:44;10.30;58.00
17762;DHT22;9005;48.838;10.112;2024-02-14T10:49:13;10.30;57.70
17762;DHT22;9005;48.838;10.112;2024-02-14T10:51:43;10.70;57.80
17762;DHT22;9005;48.838;10.112;2024-02-14T10:54:14;11.30;56.20
17762;DHT22;9005;48.838;10.112;2024-02-14T10:56:49;11.90;55.40
17762;DHT22;9005;48.838;10.112;2024-02-14T10:59:20;12.10;53.70
17762;DHT22;9005;48.838;10.112;2024-02-14T11:01:47;11.80;54.50
17762;DHT22;9005;48.838;10.112;2024-02-14T11:04:15;12.30;55.20
17762;DHT22;9005;48.838;10.112;2024-02-14T11:06:46;13.00;52.80
17762;DHT22;9005;48.838;10.112;2024-02-14T11:09:13;13.40;51.40
17762;DHT22;9005;48.838;10.112;2024-02-14T11:11:42;14.10;51.00
17762;DHT22;9005;48.838;10.112;2024-02-14T11:14:09;14.70;48.70
17762;DHT22;9005;48.838;10.112;2024-02-14T11:16:38;14.90;48.50
17762;DHT22;9005;48.838;10.112;2024-02-14T11:19:09;15.10;47.20
17762;DHT22;9005;48.838;10.112;2024-02-14T11:21:37;14.70;47.90
17762;DHT22;9005;48.838;10.112;2024-02-14T11:24:05;14.00;50.10
17762;DHT22;9005;48.838;10.112;2024-02-14T11:26:45;14.20;49.70
17762;DHT22;9005;48.838;10.112;2024-02-14T11:29:14;14.10;50.40
17762;DHT22;9005;48.838;10.112;2024-02-14T11:31:43;13.50;51.40
17762;DHT22;9005;48.838;10.112;2024-02-14T11:34:12;13.00;53.00
17762;DHT22;9005;48.838;10.112;2024-02-14T11:36:39;12.30;55.30
17762;DHT22;9005;48.838;10.112;2024-02-14T11:39:07;12.30;55.60
17762;DHT22;9005;48.838;10.112;2024-02-14T11:41:35;12.20;56.10
17762;DHT22;9005;48.838;10.112;2024-02-14T11:44:03;12.20;56.00
17762;DHT22;9005;48.838;10.112;2024-02-14T11:46:31;12.10;56.90
17762;DHT22;9005;48.838;10.112;2024-02-14T11:48:59;12.10;56.70
17762;DHT22;9005;48.838;10.112;2024-02-14T11:51:27;11.70;57.90
17762;DHT22;9005;48.838;10.112;2024-02-14T11:53:54;11.50;58.50
17762;DHT22;9005;48.838;10.112;2024-02-14T11:56:22;11.30;59.10
17762;DHT22;9005;48.838;10.112;2024-02-14T11:58:48;11.00;60.00
17762;DHT22;9005;48.838;10.112;2024-02-14T12:01:16;11.00;60.80
17762;DHT22;9005;48.838;10.112;2024-02-14T12:03:43;11.20;60.00
17762;DHT22;9005;48.838;10.112;2024-02-14T12:06:12;11.30;60.00
17762;DHT22;9005;48.838;10.112;2024-02-14T12:08:41;11.50;59.20
17762;DHT22;9005;48.838;10.112;2024-02-14T12:11:07;11.60;59.70
17762;DHT22;9005;48.838;10.112;2024-02-14T12:13:34;11.70;59.10
17762;DHT22;9005;48.838;10.112;2024-02-14T12:16:03;11.30;60.10
17762;DHT22;9005;48.838;10.112;2024-02-14T12:18:33;11.20;60.90
17762;DHT22;9005;48.838;10.112;2024-02-14T12:21:04;11.10;61.30
17762;DHT22;9005;48.838;10.112;2024-02-14T12:23:34;11.10;61.70
17762;DHT22;9005;48.838;10.112;2024-02-14T12:26:01;10.90;62.10
17762;DHT22;9005;48.838;10.112;2024-02-14T12:28:29;10.80;62.70
17762;DHT22;9005;48.838;10.112;2024-02-14T12:30:57;10.60;63.30
17762;DHT22;9005;48.838;10.112;2024-02-14T12:33:25;10.50;63.80
17762;DHT22;9005;48.838;10.112;2024-02-14T12:35:53;10.50;64.10
17762;DHT22;9005;48.838;10.112;2024-02-14T12:38:21;10.40;64.60
17762;DHT22;9005;48.838;10.112;2024-02-14T12:40:50;10.30;65.00
17762;DHT22;9005;48.838;10.112;2024-02-14T12:43:17;10.30;65.40
17762;DHT22;9005;48.838;10.112;2024-02-14T12:45:43;10.30;65.40
17762;DHT22;9005;48.838;10.112;2024-02-14T12:48:11;10.30;65.50
17762;DHT22;9005;48.838;10.112;2024-02-14T12:50:39;10.30;65.40
17762;DHT22;9005;48.838;10.112;2024-02-14T12:53:10;10.40;65.70
17762;DHT22;9005;48.838;10.112;2024-02-14T12:55:37;10.40;65.90
17762;DHT22;9005;48.838;10.112;2024-02-14T12:58:05;10.50;66.00
17762;DHT22;9005;48.838;10.112;2024-02-14T13:00:32;10.40;65.80
17762;DHT22;9005;48.838;10.112;2024-02-14T13:02:59;10.40;66.00
17762;DHT22;9005;48.838;10.112;2024-02-14T13:05:26;10.30;66.40
17762;DHT22;9005;48.838;10.112;2024-02-14T13:07:53;10.20;66.90
17762;DHT22;9005;48.838;10.112;2024-02-14T13:10:19;10.20;66.80
17762;DHT22;9005;48.838;10.112;2024-02-14T13:12:47;10.20;67.00
17762;DHT22;9005;48.838;10.112;2024-02-14T13:15:15;10.10;67.20
17762;DHT22;9005;48.838;10.112;2024-02-14T13:17:42;10.10;67.50
17762;DHT22;9005;48.838;10.112;2024-02-14T13:20:10;10.10;67.70
17762;DHT22;9005;48.838;10.112;2024-02-14T13:22:37;10.10;67.90
17762;DHT22;9005;48.838;10.112;2024-02-14T13:25:05;10.10;68.00
17762;DHT22;9005;48.838;10.112;2024-02-14T13:27:32;10.10;68.00
17762;DHT22;9005;48.838;10.112;2024-02-14T13:29:59;10.10;68.20
17762;DHT22;9005;48.838;10.112;2024-02-14T13:32:27;10.10;68.20
17762;DHT22;9005;48.838;10.112;2024-02-14T13:34:54;10.10;68.20
17762;DHT22;9005;48.838;10.112;2024-02-14T13:37:21;10.10;68.40
17762;DHT22;9005;48.838;10.112;2024-02-14T13:39:48;10.10;68.60
17762;DHT22;9005;48.838;10.112;2024-02-14T13:42:15;10.20;68.50
17762;DHT22;9005;48.838;10.112;2024-02-14T13:44:42;10.20;68.20
17762;DHT22;9005;48.838;10.112;2024-02-14T13:47:09;10.60;67.50
17762;DHT22;9005;48.838;10.112;2024-02-14T13:49:38;10.70;67.50
17762;DHT22;9005;48.838;10.112;2024-02-14T13:52:04;10.90;66.20
17762;DHT22;9005;48.838;10.112;2024-02-14T13:54:31;10.90;65.80
17762;DHT22;9005;48.838;10.112;2024-02-14T13:56:58;10.90;66.00
17762;DHT22;9005;48.838;10.112;2024-02-14T13:59:25;10.70;66.30
17762;DHT22;9005;48.838;10.112;2024-02-14T14:01:51;10.60;66.60
17762;DHT22;9005;48.838;10.112;2024-02-14T14:04:18;10.60;67.20
17762;DHT22;9005;48.838;10.112;2024-02-14T14:06:47;10.60;67.00
17762;DHT22;9005;48.838;10.112;2024-02-14T14:09:14;10.70;67.20
17762;DHT22;9005;48.838;10.112;2024-02-14T14:11:41;10.70;66.40
17762;DHT22;9005;48.838;10.112;2024-02-14T14:14:07;10.70;66.60
17762;DHT22;9005;48.838;10.112;2024-02-14T14:16:37;10.60;66.80
17762;DHT22;9005;48.838;10.112;2024-02-14T14:19:03;10.60;67.10
17762;DHT22;9005;48.838;10.112;2024-02-14T14:21:30;10.60;67.20
17762;DHT22;9005;48.838;10.112;2024-02-14T14:23:58;10.70;66.70
17762;DHT22;9005;48.838;10.112;2024-02-14T14:26:25;10.70;66.70
17762;DHT22;9005;48.838;10.112;2024-02-14T14:28:51;10.70;67.00
17762;DHT22;9005;48.838;10.112;2024-02-14T14:31:19;10.80;66.80
17762;DHT22;9005;48.838;10.112;2024-02-14T14:33:46;10.80;67.10
17762;DHT22;9005;48.838;10.112;2024-02-14T14:36:14;10.80;66.70
17762;DHT22;9005;48.838;10.112;2024-02-14T14:38:41;10.70;66.70
17762;DHT22;9005;48.838;10.112;2024-02-14T14:41:09;10.70;67.20
17762;DHT22;9005;48.838;10.112;2024-02-14T14:43:35;10.70;67.40
17762;DHT22;9005;48.838;10.112;2024-02-14T14:46:02;10.70;67.50
17762;DHT22;9005;48.838;10.112;2024-02-14T14:48:29;10.80;67.00
17762;DHT22;9005;48.838;10.112;2024-02-14T14:50:55;10.90;67.20
17762;DHT22;9005;48.838;10.112;2024-02-14T14:53:22;10.90;67.10
17762;DHT22;9005;48.838;10.112;2024-02-14T14:55:50;11.00;66.90
17762;DHT22;9005;48.838;10.112;2024-02-14T14:58:19;11.10;66.20
17762;DHT22;9005;48.838;10.112;2024-02-14T15:00:46;11.10;66.20
17762;DHT22;9005;48.838;10.112;2024-02-14T15:03:13;11.10;66.30
17762;DHT22;9005;48.838;10.112;2024-02-14T15:05:40;11.00;66.10
17762;DHT22;9005;48.838;10.112;2024-02-14T15:08:07;11.00;66.40
17762;DHT22;9005;48.838;10.112;2024-02-14T15:10:34;11.00;67.50
17762;DHT22;9005;48.838;10.112;2024-02-14T15:13:04;11.10;66.70
17762;DHT22;9005;48.838;10.112;2024-02-14T15:15:32;11.10;66.90
17762;DHT22;9005;48.838;10.112;2024-02-14T15:17:59;11.10;66.50
17762;DHT22;9005;48.838;10.112;2024-02-14T15:20:26;11.10;67.20
17762;DHT22;9005;48.838;10.112;2024-02-14T15:22:53;11.20;66.30
17762;DHT22;9005;48.838;10.112;2024-02-14T15:25:20;11.10;66.60
17762;DHT22;9005;48.838;10.112;2024-02-14T15:27:47;11.10;66.50
17762;DHT22;9005;48.838;10.112;2024-02-14T15:30:20;11.00;66.70
17762;DHT22;9005;48.838;10.112;2024-02-14T15:33:05;11.00;67.00
17762;DHT22;9005;48.838;10.112;2024-02-14T15:35:48;11.00;67.40
17762;DHT22;9005;48.838;10.112;2024-02-14T15:38:15;11.00;67.10
17762;DHT22;9005;48.838;10.112;2024-02-14T15:40:44;10.90;67.20